Time;durP1;ratioP1;P1;durP2;ratioP2;P2;SDS_P1;SDS_P2;PMS_P1;PMS_P2;Temp;Humidity;BMP_temperature;BMP_pressure;BME280_temperature;BME280_humidity;BME280_pressure;Samples;Min_cycle;Max_cycle;Signal;HPM_P1;HPM_P2
2023/12/14 00:01:22;;;;;;;;;;;20.50;85.80;;;;;;7308548;19;9775;-61
2023/12/14 00:03:52;;;;;;;;;;;20.50;86.10;;;;;;7316675;19;9351;-62
2023/12/14 00:06:21;;;;;;;;;;;20.40;86.30;;;;;;7313312;19;9720;-62
2023/12/14 00:08:50;;;;;;;;;;;20.30;86.40;;;;;;7315144;19;9626;-62
2023/12/14 00:11:19;;;;;;;;;;;20.30;86.60;;;;;;7314761;19;9462;-62
2023/12/14 00:13:48;;;;;;;;;;;20.30;86.80;;;;;;7316880;19;9517;-62
2023/12/14 00:16:17;;;;;;;;;;;20.20;86.30;;;;;;7316736;19;9453;-61
2023/12/14 00:18:49;;;;;;;;;;;20.10;86.90;;;;;;7314888;19;9523;-62
2023/12/14 00:21:18;;;;;;;;;;;20.10;87.20;;;;;;7307070;19;9468;-62
2023/12/14 00:23:47;;;;;;;;;;;20.10;87.10;;;;;;7313987;19;9463;-62
2023/12/14 00:26:17;;;;;;;;;;;20.10;87.60;;;;;;7314080;19;9514;-62
2023/12/14 00:28:46;;;;;;;;;;;20.00;87.70;;;;;;7307321;19;9741;-63
2023/12/14 00:31:35;;;;;;;;;;;20.00;87.70;;;;;;7312596;19;9514;-62
2023/12/14 00:34:07;;;;;;;;;;;20.00;88.10;;;;;;7316182;19;9461;-61
2023/12/14 00:36:35;;;;;;;;;;;19.90;88.20;;;;;;7316058;19;9676;-62
2023/12/14 00:39:05;;;;;;;;;;;19.90;88.20;;;;;;7314201;19;9771;-62
2023/12/14 00:41:34;;;;;;;;;;;19.90;88.20;;;;;;7314361;19;9506;-62
2023/12/14 00:44:03;;;;;;;;;;;19.90;88.40;;;;;;7316117;19;10851;-62
2023/12/14 00:46:31;;;;;;;;;;;19.90;88.30;;;;;;7309052;19;9481;-62
2023/12/14 00:49:02;;;;;;;;;;;19.90;88.30;;;;;;7314986;19;9447;-61
2023/12/14 00:51:34;;;;;;;;;;;20.00;88.20;;;;;;7316738;19;9467;-62
2023/12/14 00:54:03;;;;;;;;;;;20.10;87.60;;;;;;7322846;19;9461;-62
2023/12/14 00:56:32;;;;;;;;;;;20.10;87.20;;;;;;7320490;19;9230;-62
2023/12/14 00:59:01;;;;;;;;;;;20.20;86.50;;;;;;7320757;19;9215;-62
2023/12/14 01:01:30;;;;;;;;;;;20.20;85.40;;;;;;7319916;19;9277;-62
2023/12/14 01:04:00;;;;;;;;;;;20.20;85.90;;;;;;7321300;19;9445;-62
2023/12/14 01:06:29;;;;;;;;;;;20.30;85.40;;;;;;7321567;19;9270;-62
2023/12/14 01:09:01;;;;;;;;;;;20.40;85.10;;;;;;7320197;19;9470;-62
2023/12/14 01:11:30;;;;;;;;;;;20.50;84.70;;;;;;7321121;19;9695;-62
2023/12/14 01:13:59;;;;;;;;;;;20.50;84.60;;;;;;7321718;19;9453;-62
2023/12/14 01:16:29;;;;;;;;;;;20.60;84.50;;;;;;7321160;19;9254;-62
2023/12/14 01:19:18;;;;;;;;;;;20.60;84.50;;;;;;7321144;19;10244;-61
2023/12/14 01:21:47;;;;;;;;;;;20.60;84.00;;;;;;7318779;19;9485;-62
2023/12/14 01:24:18;;;;;;;;;;;20.70;84.20;;;;;;7322250;19;9427;-62
2023/12/14 01:26:47;;;;;;;;;;;20.70;84.60;;;;;;7322862;19;9504;-62
2023/12/14 01:29:16;;;;;;;;;;;20.70;83.90;;;;;;7312849;19;9590;-62
2023/12/14 01:31:45;;;;;;;;;;;20.70;84.20;;;;;;7319073;19;9466;-62
2023/12/14 01:34:15;;;;;;;;;;;20.70;84.40;;;;;;7319775;19;9654;-63
2023/12/14 01:36:45;;;;;;;;;;;20.70;84.10;;;;;;7321406;19;9461;-62
2023/12/14 01:39:14;;;;;;;;;;;20.70;84.60;;;;;;7319730;19;10650;-62
2023/12/14 01:41:45;;;;;;;;;;;20.70;85.00;;;;;;7319876;19;9578;-62
2023/12/14 01:44:15;;;;;;;;;;;20.60;85.20;;;;;;7318371;19;9644;-62
2023/12/14 01:46:43;;;;;;;;;;;20.60;85.70;;;;;;7313718;19;9516;-62
2023/12/14 01:49:32;;;;;;;;;;;20.60;85.70;;;;;;7317350;19;9233;-62
2023/12/14 01:52:01;;;;;;;;;;;20.50;86.00;;;;;;7319321;19;9384;-62
2023/12/14 01:54:50;;;;;;;;;;;20.50;86.10;;;;;;7318186;19;9522;-62
2023/12/14 01:57:22;;;;;;;;;;;20.40;86.40;;;;;;7318466;19;9152;-62
2023/12/14 01:59:51;;;;;;;;;;;20.40;86.50;;;;;;7318574;19;9128;-62
2023/12/14 02:02:40;;;;;;;;;;;20.30;86.70;;;;;;7316713;19;10531;-62
2023/12/14 02:05:10;;;;;;;;;;;20.30;87.00;;;;;;7318284;19;9649;-62
2023/12/14 02:07:39;;;;;;;;;;;20.20;87.00;;;;;;7318631;19;9593;-62
2023/12/14 02:10:10;;;;;;;;;;;20.20;87.30;;;;;;7319784;19;9476;-62
2023/12/14 02:12:42;;;;;;;;;;;20.20;87.40;;;;;;7318067;19;9412;-62
2023/12/14 02:15:11;;;;;;;;;;;20.20;87.60;;;;;;7310295;19;9630;-61
2023/12/14 02:17:40;;;;;;;;;;;20.10;87.50;;;;;;7316913;19;9671;-61
2023/12/14 02:20:10;;;;;;;;;;;20.00;87.60;;;;;;7318153;19;9350;-62
2023/12/14 02:22:51;;;;;;;;;;;20.00;87.90;;;;;;7319365;19;10792;-61
2023/12/14 02:25:21;;;;;;;;;;;20.00;88.20;;;;;;7318898;19;9535;-61
2023/12/14 02:27:51;;;;;;;;;;;20.00;88.10;;;;;;7319040;19;9441;-61
2023/12/14 02:30:21;;;;;;;;;;;20.00;88.10;;;;;;7312105;19;9456;-61
2023/12/14 02:32:50;;;;;;;;;;;20.00;88.30;;;;;;7317513;19;9707;-61
2023/12/14 02:35:19;;;;;;;;;;;20.00;88.30;;;;;;7320103;19;9509;-61
2023/12/14 02:37:51;;;;;;;;;;;20.00;88.20;;;;;;7318497;19;9490;-61
2023/12/14 02:40:20;;;;;;;;;;;20.00;88.10;;;;;;7317589;19;9604;-61
2023/12/14 02:42:49;;;;;;;;;;;20.10;87.70;;;;;;7317604;19;9147;-61
2023/12/14 02:45:38;;;;;;;;;;;20.10;86.50;;;;;;7317975;19;9505;-61
2023/12/14 02:48:07;;;;;;;;;;;20.20;86.80;;;;;;7310132;19;9691;-61
2023/12/14 02:50:36;;;;;;;;;;;20.20;86.10;;;;;;7315307;19;9465;-61
2023/12/14 02:53:08;;;;;;;;;;;20.30;85.40;;;;;;7317738;19;9568;-61
2023/12/14 02:55:37;;;;;;;;;;;20.30;85.50;;;;;;7318560;19;9403;-61
2023/12/14 02:58:06;;;;;;;;;;;20.40;85.60;;;;;;7314482;19;9574;-61
2023/12/14 03:00:55;;;;;;;;;;;20.50;85.20;;;;;;7315310;19;9501;-61
2023/12/14 03:03:23;;;;;;;;;;;20.50;84.80;;;;;;7317803;19;9228;-61
2023/12/14 03:05:53;;;;;;;;;;;20.60;84.80;;;;;;7310044;19;11414;-61
2023/12/14 03:08:25;;;;;;;;;;;20.70;84.40;;;;;;7317897;19;9335;-61
2023/12/14 03:10:54;;;;;;;;;;;20.70;84.30;;;;;;7316242;19;10752;-61
2023/12/14 03:13:23;;;;;;;;;;;20.70;83.90;;;;;;7318435;19;9063;-60
2023/12/14 03:16:11;;;;;;;;;;;20.80;83.90;;;;;;7317438;19;9642;-61
2023/12/14 03:19:00;;;;;;;;;;;20.80;84.00;;;;;;7317452;19;9300;-61
2023/12/14 03:21:29;;;;;;;;;;;20.80;83.60;;;;;;7314215;19;9721;-61
2023/12/14 03:24:01;;;;;;;;;;;20.80;83.40;;;;;;7317339;19;9534;-62
2023/12/14 03:26:30;;;;;;;;;;;20.80;83.60;;;;;;7316977;19;9610;-62
2023/12/14 03:28:59;;;;;;;;;;;20.80;83.50;;;;;;7317665;19;9453;-61
2023/12/14 03:31:48;;;;;;;;;;;20.80;84.30;;;;;;7314724;19;9572;-62
2023/12/14 03:34:16;;;;;;;;;;;20.70;84.30;;;;;;7317489;19;9613;-61
2023/12/14 03:36:45;;;;;;;;;;;20.70;84.50;;;;;;7316722;19;9548;-61
2023/12/14 03:39:17;;;;;;;;;;;20.70;84.60;;;;;;7315541;19;9508;-61
2023/12/14 03:42:06;;;;;;;;;;;20.60;84.80;;;;;;7313620;19;9466;-61
2023/12/14 03:44:35;;;;;;;;;;;20.60;85.00;;;;;;7317616;19;9167;-62
2023/12/14 03:47:04;;;;;;;;;;;20.50;85.10;;;;;;7313777;19;9643;-61
2023/12/14 03:49:33;;;;;;;;;;;20.50;85.30;;;;;;7316583;19;9374;-61
2023/12/14 03:52:02;;;;;;;;;;;20.50;85.40;;;;;;7317329;19;9453;-61
2023/12/14 03:54:34;;;;;;;;;;;20.40;85.40;;;;;;7317870;19;9257;-62
2023/12/14 03:57:02;;;;;;;;;;;20.40;85.70;;;;;;7317134;19;8991;-61
2023/12/14 03:59:32;;;;;;;;;;;20.40;85.80;;;;;;7315565;19;9469;-61
2023/12/14 04:02:01;;;;;;;;;;;20.30;86.00;;;;;;7308422;19;9636;-61
2023/12/14 04:04:29;;;;;;;;;;;20.20;86.30;;;;;;7315195;19;9290;-61
2023/12/14 04:06:59;;;;;;;;;;;20.20;86.20;;;;;;7314905;19;9340;-61
2023/12/14 04:09:28;;;;;;;;;;;20.20;86.20;;;;;;7315523;19;9297;-61
2023/12/14 04:12:00;;;;;;;;;;;20.10;86.10;;;;;;7314574;19;9290;-61
2023/12/14 04:14:28;;;;;;;;;;;20.10;86.30;;;;;;7315299;19;9377;-62
2023/12/14 04:16:57;;;;;;;;;;;20.00;86.40;;;;;;7316928;19;9458;-61
2023/12/14 04:19:26;;;;;;;;;;;20.00;86.60;;;;;;7315292;19;9477;-61
2023/12/14 04:21:55;;;;;;;;;;;20.00;86.70;;;;;;7311840;19;9332;-61
2023/12/14 04:24:24;;;;;;;;;;;19.90;86.90;;;;;;7311370;19;9643;-61
2023/12/14 04:26:53;;;;;;;;;;;19.90;87.00;;;;;;7319195;19;9482;-61
2023/12/14 04:29:22;;;;;;;;;;;19.90;87.10;;;;;;7318103;19;10095;-60
2023/12/14 04:31:53;;;;;;;;;;;19.90;87.20;;;;;;7316274;19;9504;-61
2023/12/14 04:34:21;;;;;;;;;;;19.90;87.20;;;;;;7321132;19;10465;-61
2023/12/14 04:36:52;;;;;;;;;;;19.90;87.20;;;;;;7322798;19;9161;-61
2023/12/14 04:39:21;;;;;;;;;;;20.00;87.10;;;;;;7320834;19;9521;-61
2023/12/14 04:42:10;;;;;;;;;;;20.00;87.00;;;;;;7321103;19;9678;-61
2023/12/14 04:44:42;;;;;;;;;;;20.00;86.70;;;;;;7320724;19;9278;-61
2023/12/14 04:47:11;;;;;;;;;;;20.10;86.20;;;;;;7323281;19;9561;-61
2023/12/14 04:49:40;;;;;;;;;;;20.20;85.50;;;;;;7310720;19;9087;-62
2023/12/14 04:52:09;;;;;;;;;;;20.20;85.40;;;;;;7321038;19;9746;-61
2023/12/14 04:54:40;;;;;;;;;;;20.20;85.00;;;;;;7320075;19;9455;-62
2023/12/14 04:57:09;;;;;;;;;;;20.30;84.40;;;;;;7317982;19;9421;-62
2023/12/14 04:59:43;;;;;;;;;;;20.40;84.20;;;;;;7321867;19;9464;-62
2023/12/14 05:02:12;;;;;;;;;;;20.50;84.20;;;;;;7319746;19;9765;-61
2023/12/14 05:04:41;;;;;;;;;;;20.50;84.30;;;;;;7321174;19;9209;-62
2023/12/14 05:07:10;;;;;;;;;;;20.60;84.00;;;;;;7311448;19;9284;-61
2023/12/14 05:09:39;;;;;;;;;;;20.60;83.70;;;;;;7320374;19;9166;-61
2023/12/14 05:12:09;;;;;;;;;;;20.70;83.40;;;;;;7319902;19;9316;-61
2023/12/14 05:14:40;;;;;;;;;;;20.70;83.10;;;;;;7320399;19;9536;-61
2023/12/14 05:17:09;;;;;;;;;;;20.80;83.20;;;;;;7321490;19;9481;-61
2023/12/14 05:19:38;;;;;;;;;;;20.80;83.00;;;;;;7321023;19;9449;-62
2023/12/14 05:22:07;;;;;;;;;;;20.80;82.60;;;;;;7320978;19;9397;-61
2023/12/14 05:24:36;;;;;;;;;;;20.80;82.50;;;;;;7320386;19;9493;-61
2023/12/14 05:27:25;;;;;;;;;;;20.80;82.30;;;;;;7318262;19;9463;-61
2023/12/14 05:29:57;;;;;;;;;;;20.80;82.80;;;;;;7318311;19;9580;-62
2023/12/14 05:32:26;;;;;;;;;;;20.70;83.00;;;;;;7320530;19;9656;-62
2023/12/14 05:34:55;;;;;;;;;;;20.70;82.90;;;;;;7320285;19;9222;-62
2023/12/14 05:37:24;;;;;;;;;;;20.70;83.20;;;;;;7318958;19;9226;-62
2023/12/14 05:39:53;;;;;;;;;;;20.70;83.50;;;;;;7321793;19;9465;-63
2023/12/14 05:42:22;;;;;;;;;;;20.60;83.60;;;;;;7321215;19;9267;-62
2023/12/14 05:44:51;;;;;;;;;;;20.60;83.80;;;;;;7320151;19;9529;-62
2023/12/14 05:47:22;;;;;;;;;;;20.50;83.80;;;;;;7317940;19;9473;-62
2023/12/14 05:49:51;;;;;;;;;;;20.50;83.90;;;;;;7321004;19;9465;-62
2023/12/14 05:52:20;;;;;;;;;;;20.50;84.10;;;;;;7322404;19;10295;-62
2023/12/14 05:54:49;;;;;;;;;;;20.40;84.30;;;;;;7320427;19;9182;-63
2023/12/14 05:57:18;;;;;;;;;;;20.40;84.20;;;;;;7321694;19;9240;-62
2023/12/14 05:59:47;;;;;;;;;;;20.30;84.40;;;;;;7316948;19;10704;-62
2023/12/14 06:02:16;;;;;;;;;;;20.30;84.50;;;;;;7312435;19;9481;-62
2023/12/14 06:04:47;;;;;;;;;;;20.20;84.70;;;;;;7314938;19;9527;-61
2023/12/14 06:07:17;;;;;;;;;;;20.20;84.80;;;;;;7317681;19;9621;-62
2023/12/14 06:09:46;;;;;;;;;;;20.10;84.70;;;;;;7317023;19;9465;-62
2023/12/14 06:12:15;;;;;;;;;;;20.10;85.00;;;;;;7319095;19;9498;-62
2023/12/14 06:14:44;;;;;;;;;;;20.10;85.10;;;;;;7320587;19;9517;-62
2023/12/14 06:17:37;;;;;;;;;;;20.10;84.90;;;;;;7318784;19;9311;-62
2023/12/14 06:20:10;;;;;;;;;;;20.00;85.10;;;;;;7319114;19;10297;-62
2023/12/14 06:22:39;;;;;;;;;;;20.00;85.40;;;;;;7312255;19;9530;-62
2023/12/14 06:25:09;;;;;;;;;;;20.00;85.20;;;;;;7317938;19;9405;-62
2023/12/14 06:27:38;;;;;;;;;;;19.90;85.50;;;;;;7318768;19;9460;-62
2023/12/14 06:30:09;;;;;;;;;;;20.00;85.60;;;;;;7318772;19;9285;-62
2023/12/14 06:32:58;;;;;;;;;;;20.00;85.60;;;;;;7310076;19;11070;-62
2023/12/14 06:35:30;;;;;;;;;;;20.00;85.50;;;;;;7306759;19;9465;-62
2023/12/14 06:38:18;;;;;;;;;;;20.00;85.50;;;;;;7315341;19;9554;-62
2023/12/14 06:40:48;;;;;;;;;;;20.10;85.10;;;;;;7311269;19;9442;-62
2023/12/14 06:43:16;;;;;;;;;;;20.10;84.20;;;;;;7318947;19;9377;-62
2023/12/14 06:45:45;;;;;;;;;;;20.20;84.60;;;;;;7319385;19;9457;-62
2023/12/14 06:48:14;;;;;;;;;;;20.20;84.20;;;;;;7318360;19;9702;-62
2023/12/14 06:50:46;;;;;;;;;;;20.30;83.90;;;;;;7316758;19;9493;-62
2023/12/14 06:53:15;;;;;;;;;;;20.30;83.40;;;;;;7319290;19;9451;-62
2023/12/14 06:55:44;;;;;;;;;;;20.40;83.20;;;;;;7319487;19;9477;-62
2023/12/14 06:58:13;;;;;;;;;;;20.40;83.10;;;;;;7318206;19;9649;-62
2023/12/14 07:00:42;;;;;;;;;;;20.50;83.00;;;;;;7317730;19;9333;-61
2023/12/14 07:03:11;;;;;;;;;;;20.50;82.60;;;;;;7312181;19;9431;-62
2023/12/14 07:05:41;;;;;;;;;;;20.60;82.40;;;;;;7305474;19;9505;-62
2023/12/14 07:08:13;;;;;;;;;;;20.70;82.30;;;;;;7317914;19;9606;-62
2023/12/14 07:10:44;;;;;;;;;;;20.80;82.10;;;;;;7318256;19;9513;-62
2023/12/14 07:13:13;;;;;;;;;;;20.80;81.90;;;;;;7315289;19;13450;-62
2023/12/14 07:15:42;;;;;;;;;;;20.80;81.70;;;;;;7316028;19;9282;-62
2023/12/14 07:18:11;;;;;;;;;;;20.90;81.40;;;;;;7318519;19;9585;-62
2023/12/14 07:20:40;;;;;;;;;;;20.80;81.50;;;;;;7310870;19;11660;-62
2023/12/14 07:23:32;;;;;;;;;;;20.90;81.80;;;;;;7308873;19;9346;-62
2023/12/14 07:26:01;;;;;;;;;;;20.90;81.30;;;;;;7312478;19;9490;-62
2023/12/14 07:28:30;;;;;;;;;;;20.80;81.70;;;;;;7315654;19;9479;-62
2023/12/14 07:30:59;;;;;;;;;;;20.80;81.60;;;;;;7318609;19;9380;-62
2023/12/14 07:33:28;;;;;;;;;;;20.80;81.70;;;;;;7318171;19;9951;-62
2023/12/14 07:35:57;;;;;;;;;;;20.80;81.80;;;;;;7318804;19;9464;-62
2023/12/14 07:38:26;;;;;;;;;;;20.80;82.00;;;;;;7317579;19;9300;-62
2023/12/14 07:40:57;;;;;;;;;;;20.80;82.10;;;;;;7318683;19;9183;-62
2023/12/14 07:43:27;;;;;;;;;;;20.70;82.10;;;;;;7319022;19;9508;-62
2023/12/14 07:45:56;;;;;;;;;;;20.70;82.20;;;;;;7317461;19;9461;-62
2023/12/14 07:48:45;;;;;;;;;;;20.60;82.30;;;;;;7315725;19;9508;-62
2023/12/14 07:51:14;;;;;;;;;;;20.60;82.40;;;;;;7317046;19;10822;-62
2023/12/14 07:53:43;;;;;;;;;;;20.50;82.40;;;;;;7319009;19;9508;-62
2023/12/14 07:56:15;;;;;;;;;;;20.50;82.50;;;;;;7316957;19;9482;-62
2023/12/14 07:58:44;;;;;;;;;;;20.50;82.50;;;;;;7317126;19;9800;-62
2023/12/14 08:01:13;;;;;;;;;;;20.40;82.50;;;;;;7315274;19;9252;-62
2023/12/14 08:03:42;;;;;;;;;;;20.40;82.50;;;;;;7317137;19;9474;-62
2023/12/14 08:06:11;;;;;;;;;;;20.40;82.50;;;;;;7317634;19;9575;-62
2023/12/14 08:08:40;;;;;;;;;;;20.30;82.70;;;;;;7318189;19;9633;-62
2023/12/14 08:11:09;;;;;;;;;;;20.30;82.90;;;;;;7317784;19;10884;-62
2023/12/14 08:13:41;;;;;;;;;;;20.20;83.00;;;;;;7318764;19;9218;-62
2023/12/14 08:16:11;;;;;;;;;;;20.20;83.10;;;;;;7316878;19;9237;-62
2023/12/14 08:18:40;;;;;;;;;;;20.20;83.10;;;;;;7317658;19;9642;-62
2023/12/14 08:21:09;;;;;;;;;;;20.10;83.40;;;;;;7316905;19;9618;-62
2023/12/14 08:23:38;;;;;;;;;;;20.10;83.40;;;;;;7314895;19;9373;-62
2023/12/14 08:26:08;;;;;;;;;;;20.10;83.30;;;;;;7316151;19;9632;-62
2023/12/14 08:28:37;;;;;;;;;;;20.00;83.60;;;;;;7317476;19;9477;-63
2023/12/14 08:31:10;;;;;;;;;;;20.00;83.60;;;;;;7316298;19;9410;-62
2023/12/14 08:33:39;;;;;;;;;;;20.00;83.70;;;;;;7307472;19;10105;-62
2023/12/14 08:36:09;;;;;;;;;;;20.00;83.60;;;;;;7315555;19;9293;-62
2023/12/14 08:38:38;;;;;;;;;;;19.90;83.80;;;;;;7315562;19;9265;-62
2023/12/14 08:41:07;;;;;;;;;;;19.90;83.60;;;;;;7309610;19;9461;-62
2023/12/14 08:43:35;;;;;;;;;;;19.90;83.70;;;;;;7311453;19;9669;-62
2023/12/14 08:46:04;;;;;;;;;;;19.90;83.60;;;;;;7314474;19;9424;-62
2023/12/14 08:48:36;;;;;;;;;;;19.90;83.70;;;;;;7314069;19;9607;-62
2023/12/14 08:51:05;;;;;;;;;;;19.80;83.80;;;;;;7315651;19;9364;-62
2023/12/14 08:53:34;;;;;;;;;;;19.80;83.80;;;;;;7316788;19;9596;-62
2023/12/14 08:56:03;;;;;;;;;;;19.80;83.90;;;;;;7314978;19;9665;-62
2023/12/14 08:58:32;;;;;;;;;;;19.80;83.70;;;;;;7310521;19;9187;-62
2023/12/14 09:01:01;;;;;;;;;;;19.80;83.80;;;;;;7312312;19;11056;-62
2023/12/14 09:03:29;;;;;;;;;;;19.70;83.90;;;;;;7315484;19;9461;-62
2023/12/14 09:06:05;;;;;;;;;;;19.70;83.80;;;;;;7314149;19;9239;-62
2023/12/14 09:08:34;;;;;;;;;;;19.70;83.80;;;;;;7316449;19;9633;-62
2023/12/14 09:11:03;;;;;;;;;;;19.70;83.90;;;;;;7315669;19;9480;-62
2023/12/14 09:13:32;;;;;;;;;;;19.70;83.80;;;;;;7319686;19;10434;-62
2023/12/14 09:16:01;;;;;;;;;;;19.70;83.90;;;;;;7315079;19;11486;-62
2023/12/14 09:18:30;;;;;;;;;;;19.60;83.90;;;;;;7320617;19;11036;-62
2023/12/14 09:21:03;;;;;;;;;;;19.70;83.90;;;;;;7321014;19;9650;-63
2023/12/14 09:23:32;;;;;;;;;;;19.70;84.10;;;;;;7317355;19;9400;-62
2023/12/14 09:26:00;;;;;;;;;;;19.60;84.00;;;;;;7316302;19;9230;-62
2023/12/14 09:28:29;;;;;;;;;;;19.60;83.80;;;;;;7321642;19;9516;-62
2023/12/14 09:30:58;;;;;;;;;;;19.60;83.90;;;;;;7319872;19;9369;-62
2023/12/14 09:33:27;;;;;;;;;;;19.60;84.00;;;;;;7318395;19;9226;-62
2023/12/14 09:35:56;;;;;;;;;;;19.50;84.00;;;;;;7318828;19;9871;-62
2023/12/14 09:38:28;;;;;;;;;;;19.50;83.80;;;;;;7320548;19;9269;-62
2023/12/14 09:40:57;;;;;;;;;;;19.60;83.80;;;;;;7320827;19;9397;-62
2023/12/14 09:43:26;;;;;;;;;;;19.60;83.80;;;;;;7319737;19;9185;-62
2023/12/14 09:45:58;;;;;;;;;;;19.50;83.70;;;;;;7320339;19;9273;-62
2023/12/14 09:48:27;;;;;;;;;;;19.50;83.70;;;;;;7320574;19;9422;-62
2023/12/14 09:50:56;;;;;;;;;;;19.50;83.70;;;;;;7320999;19;9449;-63
2023/12/14 09:53:28;;;;;;;;;;;19.50;83.70;;;;;;7320002;19;9579;-62
2023/12/14 09:55:57;;;;;;;;;;;19.50;83.80;;;;;;7320945;19;9421;-62
2023/12/14 09:58:26;;;;;;;;;;;19.50;83.70;;;;;;7320944;19;10162;-62
2023/12/14 10:00:57;;;;;;;;;;;19.50;83.70;;;;;;7319542;19;9592;-62
2023/12/14 10:03:28;;;;;;;;;;;19.50;83.60;;;;;;7317924;19;9627;-62
2023/12/14 10:05:58;;;;;;;;;;;19.50;83.60;;;;;;7319318;19;10423;-62
2023/12/14 10:08:30;;;;;;;;;;;19.40;83.60;;;;;;7320940;19;9598;-62
2023/12/14 10:11:00;;;;;;;;;;;19.50;83.40;;;;;;7318436;19;10836;-63
2023/12/14 10:13:50;;;;;;;;;;;19.40;83.60;;;;;;7316661;19;10481;-61
2023/12/14 10:16:31;;;;;;;;;;;19.50;83.70;;;;;;7313457;19;9243;-62
2023/12/14 10:19:01;;;;;;;;;;;19.40;83.50;;;;;;7316589;19;9697;-62
2023/12/14 10:21:50;;;;;;;;;;;19.40;83.70;;;;;;7316015;19;9385;-61
2023/12/14 10:24:22;;;;;;;;;;;19.40;83.70;;;;;;7318791;19;9735;-61
2023/12/14 10:26:53;;;;;;;;;;;19.50;83.70;;;;;;7320060;19;9207;-61
2023/12/14 10:29:23;;;;;;;;;;;19.50;83.70;;;;;;7318693;19;9477;-62
2023/12/14 10:31:54;;;;;;;;;;;19.50;83.50;;;;;;7310612;19;9583;-61
2023/12/14 10:34:23;;;;;;;;;;;19.60;83.40;;;;;;7317326;19;9420;-62
2023/12/14 10:36:52;;;;;;;;;;;19.60;83.20;;;;;;7316811;19;9395;-62
2023/12/14 10:39:23;;;;;;;;;;;19.70;83.10;;;;;;7319133;19;9570;-61
2023/12/14 10:42:13;;;;;;;;;;;19.70;82.90;;;;;;7314974;19;9232;-62
2023/12/14 10:44:42;;;;;;;;;;;19.80;82.20;;;;;;7317364;19;9457;-62
2023/12/14 10:47:11;;;;;;;;;;;19.90;82.00;;;;;;7316269;19;9276;-62
2023/12/14 10:49:40;;;;;;;;;;;20.00;81.70;;;;;;7311248;19;9595;-62
2023/12/14 10:52:09;;;;;;;;;;;20.10;81.70;;;;;;7316214;19;9176;-62
2023/12/14 10:54:42;;;;;;;;;;;20.10;81.10;;;;;;7317994;19;9469;-62
2023/12/14 10:57:12;;;;;;;;;;;20.20;81.00;;;;;;7318542;19;10043;-61
2023/12/14 10:59:40;;;;;;;;;;;20.30;80.80;;;;;;7317110;19;9332;-62
2023/12/14 11:02:13;;;;;;;;;;;20.30;80.40;;;;;;7317102;19;9458;-62
2023/12/14 11:04:59;;;;;;;;;;;20.30;80.10;;;;;;7318808;19;9613;-61
2023/12/14 11:07:46;;;;;;;;;;;20.30;80.00;;;;;;7308228;19;9569;-61
2023/12/14 11:10:22;;;;;;;;;;;20.30;80.30;;;;;;7317896;19;9161;-62
2023/12/14 11:12:59;;;;;;;;;;;20.30;80.40;;;;;;7316282;19;9226;-62
2023/12/14 11:15:33;;;;;;;;;;;20.30;80.30;;;;;;7313154;19;9681;-62
2023/12/14 11:18:24;;;;;;;;;;;20.30;80.30;;;;;;7318717;19;9202;-62
2023/12/14 11:21:01;;;;;;;;;;;20.30;80.40;;;;;;7315443;19;9477;-62
2023/12/14 11:23:36;;;;;;;;;;;20.30;80.40;;;;;;7315547;19;9446;-62
2023/12/14 11:26:11;;;;;;;;;;;20.30;80.50;;;;;;7316073;19;9517;-62
2023/12/14 11:28:43;;;;;;;;;;;20.20;80.50;;;;;;7316665;19;9378;-62
2023/12/14 11:31:13;;;;;;;;;;;20.20;80.60;;;;;;7317155;19;9574;-62
2023/12/14 11:33:44;;;;;;;;;;;20.20;80.60;;;;;;7317491;19;9483;-61
2023/12/14 11:36:14;;;;;;;;;;;20.10;80.60;;;;;;7305451;19;9528;-62
2023/12/14 11:38:43;;;;;;;;;;;20.10;80.60;;;;;;7317943;19;9184;-62
2023/12/14 11:41:15;;;;;;;;;;;20.10;80.80;;;;;;7318503;19;9269;-62
2023/12/14 11:43:45;;;;;;;;;;;20.10;80.90;;;;;;7318716;19;10361;-61
2023/12/14 11:46:15;;;;;;;;;;;20.00;80.80;;;;;;7315150;19;9402;-62
2023/12/14 11:48:48;;;;;;;;;;;20.00;80.90;;;;;;7309417;19;10544;-62
2023/12/14 11:51:18;;;;;;;;;;;20.00;81.00;;;;;;7313405;19;9279;-62
2023/12/14 11:53:48;;;;;;;;;;;19.90;81.00;;;;;;7315869;19;9520;-61
2023/12/14 11:56:22;;;;;;;;;;;19.90;81.00;;;;;;7316058;19;9656;-61
2023/12/14 11:58:54;;;;;;;;;;;19.90;81.30;;;;;;7315610;19;9257;-61
2023/12/14 12:01:25;;;;;;;;;;;19.80;81.10;;;;;;7315339;19;10628;-61
2023/12/14 12:03:54;;;;;;;;;;;19.80;81.10;;;;;;7314470;19;9285;-62
2023/12/14 12:06:24;;;;;;;;;;;19.80;81.00;;;;;;7309013;19;9592;-62
2023/12/14 12:08:54;;;;;;;;;;;19.80;81.20;;;;;;7312721;19;10363;-62
2023/12/14 12:11:27;;;;;;;;;;;19.70;81.30;;;;;;7316049;19;9737;-62
2023/12/14 12:13:59;;;;;;;;;;;19.70;81.30;;;;;;7315715;19;9208;-62
2023/12/14 12:16:29;;;;;;;;;;;19.70;81.50;;;;;;7315083;19;13739;-62
2023/12/14 12:18:58;;;;;;;;;;;19.70;81.60;;;;;;7306387;19;9762;-61
2023/12/14 12:21:27;;;;;;;;;;;19.60;81.60;;;;;;7317359;19;9585;-63
2023/12/14 12:23:56;;;;;;;;;;;19.60;81.70;;;;;;7313105;19;9537;-62
2023/12/14 12:26:27;;;;;;;;;;;19.60;81.70;;;;;;7315445;19;9704;-61
2023/12/14 12:28:57;;;;;;;;;;;19.60;81.70;;;;;;7314634;19;9510;-62
2023/12/14 12:31:26;;;;;;;;;;;19.60;81.60;;;;;;7313939;19;9507;-60
2023/12/14 12:33:55;;;;;;;;;;;19.60;81.50;;;;;;7315659;19;9685;-61
2023/12/14 12:36:24;;;;;;;;;;;19.50;81.50;;;;;;7313766;19;9615;-61
2023/12/14 12:38:53;;;;;;;;;;;19.60;81.50;;;;;;7313993;19;9675;-61
2023/12/14 12:41:22;;;;;;;;;;;19.50;81.60;;;;;;7313087;19;8952;-61
2023/12/14 12:43:54;;;;;;;;;;;19.50;81.50;;;;;;7312432;19;9479;-62
2023/12/14 12:46:23;;;;;;;;;;;19.50;81.60;;;;;;7312064;19;9266;-62
2023/12/14 12:48:51;;;;;;;;;;;19.50;81.60;;;;;;7319650;19;9566;-62
2023/12/14 12:51:21;;;;;;;;;;;19.50;81.70;;;;;;7314138;19;9429;-62
2023/12/14 12:53:50;;;;;;;;;;;19.50;81.50;;;;;;7309766;19;9599;-61
2023/12/14 12:56:19;;;;;;;;;;;19.40;81.60;;;;;;7311735;19;9188;-62
2023/12/14 12:58:49;;;;;;;;;;;19.50;81.30;;;;;;7310564;19;9276;-62
2023/12/14 13:01:21;;;;;;;;;;;19.50;81.40;;;;;;7318859;19;9194;-62
2023/12/14 13:03:50;;;;;;;;;;;19.50;81.30;;;;;;7315730;19;9659;-62
2023/12/14 13:06:19;;;;;;;;;;;19.60;81.30;;;;;;7317320;19;9581;-62
2023/12/14 13:08:48;;;;;;;;;;;19.60;81.10;;;;;;7321978;19;11193;-62
2023/12/14 13:11:17;;;;;;;;;;;19.70;80.80;;;;;;7320876;19;9573;-62
2023/12/14 13:13:46;;;;;;;;;;;19.70;80.20;;;;;;7321027;19;9469;-62
2023/12/14 13:16:16;;;;;;;;;;;19.80;80.00;;;;;;7314702;19;9651;-62
2023/12/14 13:18:49;;;;;;;;;;;19.80;79.80;;;;;;7319420;19;9449;-61
2023/12/14 13:21:19;;;;;;;;;;;19.90;79.80;;;;;;7320900;19;9470;-61
2023/12/14 13:23:50;;;;;;;;;;;20.00;79.60;;;;;;7307560;19;9273;-62
2023/12/14 13:26:19;;;;;;;;;;;20.10;79.50;;;;;;7312198;19;9340;-62
2023/12/14 13:28:48;;;;;;;;;;;20.10;79.30;;;;;;7320990;19;9186;-62
2023/12/14 13:31:17;;;;;;;;;;;20.10;79.10;;;;;;7317937;19;9771;-62
2023/12/14 13:33:50;;;;;;;;;;;20.20;79.00;;;;;;7322033;19;9269;-62
2023/12/14 13:36:19;;;;;;;;;;;20.20;78.60;;;;;;7320498;19;9781;-62
2023/12/14 13:38:48;;;;;;;;;;;20.20;78.60;;;;;;7320974;19;9237;-63
2023/12/14 13:41:17;;;;;;;;;;;20.30;78.50;;;;;;7319607;19;9452;-62
2023/12/14 13:43:46;;;;;;;;;;;20.30;78.40;;;;;;7318051;19;9423;-61
2023/12/14 13:46:15;;;;;;;;;;;20.30;78.60;;;;;;7319391;19;9469;-62
2023/12/14 13:48:44;;;;;;;;;;;20.30;78.70;;;;;;7320418;19;9578;-61
2023/12/14 13:51:16;;;;;;;;;;;20.30;78.70;;;;;;7320177;19;9621;-61
2023/12/14 13:53:45;;;;;;;;;;;20.30;79.30;;;;;;7321052;19;9730;-62
2023/12/14 13:56:14;;;;;;;;;;;20.30;78.80;;;;;;7319805;19;10045;-62
2023/12/14 13:58:43;;;;;;;;;;;20.20;78.70;;;;;;7317762;19;9489;-62
2023/12/14 14:01:12;;;;;;;;;;;20.20;78.80;;;;;;7318004;19;10854;-62
2023/12/14 14:03:43;;;;;;;;;;;20.10;78.80;;;;;;7319445;19;9597;-62
2023/12/14 14:06:12;;;;;;;;;;;20.10;78.80;;;;;;7320154;19;11360;-62
2023/12/14 14:08:43;;;;;;;;;;;20.10;78.80;;;;;;7320302;19;9726;-62
2023/12/14 14:11:12;;;;;;;;;;;20.10;79.00;;;;;;7319887;19;9273;-61
2023/12/14 14:13:41;;;;;;;;;;;20.00;79.00;;;;;;7320573;19;9477;-61
2023/12/14 14:16:11;;;;;;;;;;;20.00;79.10;;;;;;7311893;19;9484;-62
2023/12/14 14:18:40;;;;;;;;;;;20.00;79.20;;;;;;7318225;19;9605;-62
2023/12/14 14:21:09;;;;;;;;;;;19.90;79.20;;;;;;7317962;19;9507;-62
2023/12/14 14:23:38;;;;;;;;;;;19.90;79.20;;;;;;7320625;19;9744;-62
2023/12/14 14:26:10;;;;;;;;;;;19.80;79.30;;;;;;7315182;19;9893;-61
2023/12/14 14:28:39;;;;;;;;;;;19.80;79.40;;;;;;7318435;19;9230;-62
2023/12/14 14:31:08;;;;;;;;;;;19.80;79.40;;;;;;7319621;19;9418;-61
2023/12/14 14:33:37;;;;;;;;;;;19.70;79.40;;;;;;7319341;19;9240;-61
2023/12/14 14:36:08;;;;;;;;;;;19.70;79.50;;;;;;7318243;19;11108;-61
2023/12/14 14:38:37;;;;;;;;;;;19.70;79.50;;;;;;7318286;19;9246;-62
2023/12/14 14:41:06;;;;;;;;;;;19.60;79.60;;;;;;7318987;19;9471;-62
2023/12/14 14:43:38;;;;;;;;;;;19.60;79.60;;;;;;7310154;19;9461;-61
2023/12/14 14:46:07;;;;;;;;;;;19.60;79.60;;;;;;7319811;19;9475;-61
2023/12/14 14:48:37;;;;;;;;;;;19.60;79.70;;;;;;7310121;19;9544;-62
2023/12/14 14:51:06;;;;;;;;;;;19.60;79.60;;;;;;7316593;19;9328;-62